sensor_id;sensor_type;location;lat;lon;timestamp;P1;durP1;ratioP1;P2;durP2;ratioP2
21591;SDS011;10958;50.892;3.992;2023-04-03T00:00:20;17.75;;;11.40;;
21591;SDS011;10958;50.892;3.992;2023-04-03T00:02:45;15.80;;;11.63;;
21591;SDS011;10958;50.892;3.992;2023-04-03T00:05:11;17.25;;;11.18;;
21591;SDS011;10958;50.892;3.992;2023-04-03T00:07:37;18.40;;;11.18;;
21591;SDS011;10958;50.892;3.992;2023-04-03T00:10:02;17.48;;;10.77;;
21591;SDS011;10958;50.892;3.992;2023-04-03T00:12:29;16.85;;;10.13;;
21591;SDS011;10958;50.892;3.992;2023-04-03T00:14:55;14.43;;;9.90;;
21591;SDS011;10958;50.892;3.992;2023-04-03T00:17:21;11.80;;;8.75;;
21591;SDS011;10958;50.892;3.992;2023-04-03T00:19:47;13.88;;;9.48;;
21591;SDS011;10958;50.892;3.992;2023-04-03T00:22:13;16.20;;;9.63;;
21591;SDS011;10958;50.892;3.992;2023-04-03T00:24:38;17.35;;;8.82;;
21591;SDS011;10958;50.892;3.992;2023-04-03T00:27:04;13.15;;;8.63;;
21591;SDS011;10958;50.892;3.992;2023-04-03T00:29:30;14.50;;;9.13;;
21591;SDS011;10958;50.892;3.992;2023-04-03T00:31:55;13.32;;;9.40;;
21591;SDS011;10958;50.892;3.992;2023-04-03T00:34:22;14.57;;;8.52;;
21591;SDS011;10958;50.892;3.992;2023-04-03T00:36:48;12.93;;;9.00;;
21591;SDS011;10958;50.892;3.992;2023-04-03T00:39:14;12.57;;;7.95;;
21591;SDS011;10958;50.892;3.992;2023-04-03T00:41:40;14.43;;;8.80;;
21591;SDS011;10958;50.892;3.992;2023-04-03T00:47:02;11.77;;;8.60;;
21591;SDS011;10958;50.892;3.992;2023-04-03T00:49:31;12.80;;;8.35;;
21591;SDS011;10958;50.892;3.992;2023-04-03T00:51:59;10.57;;;7.35;;
21591;SDS011;10958;50.892;3.992;2023-04-03T00:54:25;11.55;;;7.40;;
21591;SDS011;10958;50.892;3.992;2023-04-03T00:56:52;10.93;;;7.55;;
21591;SDS011;10958;50.892;3.992;2023-04-03T00:59:21;12.82;;;7.53;;
21591;SDS011;10958;50.892;3.992;2023-04-03T01:01:54;12.05;;;6.80;;
21591;SDS011;10958;50.892;3.992;2023-04-03T01:07:00;11.10;;;6.88;;
21591;SDS011;10958;50.892;3.992;2023-04-03T01:09:33;12.80;;;6.93;;
21591;SDS011;10958;50.892;3.992;2023-04-03T01:14:56;12.35;;;7.07;;
21591;SDS011;10958;50.892;3.992;2023-04-03T01:17:34;12.48;;;6.57;;
21591;SDS011;10958;50.892;3.992;2023-04-03T01:25:41;10.05;;;6.60;;
21591;SDS011;10958;50.892;3.992;2023-04-03T01:28:14;8.75;;;6.47;;
21591;SDS011;10958;50.892;3.992;2023-04-03T01:30:53;13.10;;;7.05;;
21591;SDS011;10958;50.892;3.992;2023-04-03T01:33:25;10.38;;;6.20;;
21591;SDS011;10958;50.892;3.992;2023-04-03T01:35:51;12.88;;;6.93;;
21591;SDS011;10958;50.892;3.992;2023-04-03T01:38:17;12.25;;;7.18;;
21591;SDS011;10958;50.892;3.992;2023-04-03T01:40:43;9.63;;;6.78;;
21591;SDS011;10958;50.892;3.992;2023-04-03T01:43:09;10.68;;;6.97;;
21591;SDS011;10958;50.892;3.992;2023-04-03T01:45:35;10.80;;;7.10;;
21591;SDS011;10958;50.892;3.992;2023-04-03T01:48:00;11.82;;;7.20;;
21591;SDS011;10958;50.892;3.992;2023-04-03T01:50:27;9.15;;;6.80;;
21591;SDS011;10958;50.892;3.992;2023-04-03T01:52:52;10.80;;;7.22;;
21591;SDS011;10958;50.892;3.992;2023-04-03T01:55:18;13.95;;;6.55;;
21591;SDS011;10958;50.892;3.992;2023-04-03T01:57:44;11.15;;;6.40;;
21591;SDS011;10958;50.892;3.992;2023-04-03T02:00:10;13.02;;;6.82;;
21591;SDS011;10958;50.892;3.992;2023-04-03T02:02:37;11.18;;;6.90;;
21591;SDS011;10958;50.892;3.992;2023-04-03T02:05:05;9.30;;;6.45;;
21591;SDS011;10958;50.892;3.992;2023-04-03T02:07:31;11.82;;;6.45;;
21591;SDS011;10958;50.892;3.992;2023-04-03T02:09:58;10.70;;;6.50;;
21591;SDS011;10958;50.892;3.992;2023-04-03T02:12:23;10.88;;;6.38;;
21591;SDS011;10958;50.892;3.992;2023-04-03T02:14:52;12.07;;;6.18;;
21591;SDS011;10958;50.892;3.992;2023-04-03T02:17:18;11.93;;;5.97;;
21591;SDS011;10958;50.892;3.992;2023-04-03T02:19:44;9.20;;;6.00;;
21591;SDS011;10958;50.892;3.992;2023-04-03T02:22:13;11.50;;;6.47;;
21591;SDS011;10958;50.892;3.992;2023-04-03T02:24:39;9.90;;;5.97;;
21591;SDS011;10958;50.892;3.992;2023-04-03T02:27:05;12.57;;;5.95;;
21591;SDS011;10958;50.892;3.992;2023-04-03T02:29:31;9.48;;;6.18;;
21591;SDS011;10958;50.892;3.992;2023-04-03T02:31:57;8.95;;;5.85;;
21591;SDS011;10958;50.892;3.992;2023-04-03T02:34:23;11.68;;;5.85;;
21591;SDS011;10958;50.892;3.992;2023-04-03T02:36:49;10.48;;;5.78;;
21591;SDS011;10958;50.892;3.992;2023-04-03T02:39:15;10.90;;;6.20;;
21591;SDS011;10958;50.892;3.992;2023-04-03T02:41:42;10.77;;;6.30;;
21591;SDS011;10958;50.892;3.992;2023-04-03T02:44:08;11.65;;;5.50;;
21591;SDS011;10958;50.892;3.992;2023-04-03T02:46:35;7.80;;;5.25;;
21591;SDS011;10958;50.892;3.992;2023-04-03T02:49:00;10.10;;;6.13;;
21591;SDS011;10958;50.892;3.992;2023-04-03T02:51:26;9.35;;;5.70;;
21591;SDS011;10958;50.892;3.992;2023-04-03T02:53:52;12.43;;;6.07;;
21591;SDS011;10958;50.892;3.992;2023-04-03T02:56:17;7.55;;;5.20;;
21591;SDS011;10958;50.892;3.992;2023-04-03T02:58:44;10.02;;;5.20;;
21591;SDS011;10958;50.892;3.992;2023-04-03T03:01:10;8.82;;;5.22;;
21591;SDS011;10958;50.892;3.992;2023-04-03T03:03:36;10.43;;;5.85;;
21591;SDS011;10958;50.892;3.992;2023-04-03T03:06:03;7.43;;;4.90;;
21591;SDS011;10958;50.892;3.992;2023-04-03T03:08:34;8.75;;;5.80;;
21591;SDS011;10958;50.892;3.992;2023-04-03T03:11:00;11.48;;;5.70;;
21591;SDS011;10958;50.892;3.992;2023-04-03T03:13:29;10.10;;;5.35;;
21591;SDS011;10958;50.892;3.992;2023-04-03T03:15:56;7.80;;;5.45;;
21591;SDS011;10958;50.892;3.992;2023-04-03T03:18:21;9.77;;;5.68;;
21591;SDS011;10958;50.892;3.992;2023-04-03T03:20:57;9.40;;;5.68;;
21591;SDS011;10958;50.892;3.992;2023-04-03T03:23:25;8.85;;;5.63;;
21591;SDS011;10958;50.892;3.992;2023-04-03T03:25:55;10.45;;;6.00;;
21591;SDS011;10958;50.892;3.992;2023-04-03T03:28:22;8.93;;;5.43;;
21591;SDS011;10958;50.892;3.992;2023-04-03T03:30:48;10.23;;;5.30;;
21591;SDS011;10958;50.892;3.992;2023-04-03T03:33:14;8.25;;;5.60;;
21591;SDS011;10958;50.892;3.992;2023-04-03T03:35:43;9.15;;;5.50;;
21591;SDS011;10958;50.892;3.992;2023-04-03T03:38:11;9.02;;;5.60;;
21591;SDS011;10958;50.892;3.992;2023-04-03T03:40:37;9.23;;;5.53;;
21591;SDS011;10958;50.892;3.992;2023-04-03T03:43:03;10.05;;;6.05;;
21591;SDS011;10958;50.892;3.992;2023-04-03T03:45:29;8.75;;;5.38;;
21591;SDS011;10958;50.892;3.992;2023-04-03T03:47:55;6.85;;;5.00;;
21591;SDS011;10958;50.892;3.992;2023-04-03T03:50:21;7.38;;;5.60;;
21591;SDS011;10958;50.892;3.992;2023-04-03T03:52:46;8.75;;;5.90;;
21591;SDS011;10958;50.892;3.992;2023-04-03T03:55:12;7.82;;;5.63;;
21591;SDS011;10958;50.892;3.992;2023-04-03T03:57:38;8.30;;;5.60;;
21591;SDS011;10958;50.892;3.992;2023-04-03T04:00:05;10.45;;;5.72;;
21591;SDS011;10958;50.892;3.992;2023-04-03T04:02:32;11.43;;;5.60;;
21591;SDS011;10958;50.892;3.992;2023-04-03T04:04:58;10.18;;;5.65;;
21591;SDS011;10958;50.892;3.992;2023-04-03T04:07:25;11.15;;;5.75;;
21591;SDS011;10958;50.892;3.992;2023-04-03T04:09:53;9.45;;;6.10;;
21591;SDS011;10958;50.892;3.992;2023-04-03T04:12:19;8.82;;;5.85;;
21591;SDS011;10958;50.892;3.992;2023-04-03T04:14:45;9.70;;;6.03;;
21591;SDS011;10958;50.892;3.992;2023-04-03T04:17:12;7.50;;;5.57;;
21591;SDS011;10958;50.892;3.992;2023-04-03T04:19:39;12.68;;;6.28;;
21591;SDS011;10958;50.892;3.992;2023-04-03T04:22:07;11.00;;;6.10;;
21591;SDS011;10958;50.892;3.992;2023-04-03T04:24:33;11.13;;;6.03;;
21591;SDS011;10958;50.892;3.992;2023-04-03T04:26:59;10.07;;;6.25;;
21591;SDS011;10958;50.892;3.992;2023-04-03T04:29:25;12.05;;;6.07;;
21591;SDS011;10958;50.892;3.992;2023-04-03T04:31:51;11.90;;;6.45;;
21591;SDS011;10958;50.892;3.992;2023-04-03T04:34:16;12.55;;;6.70;;
21591;SDS011;10958;50.892;3.992;2023-04-03T04:36:42;10.13;;;6.15;;
21591;SDS011;10958;50.892;3.992;2023-04-03T04:39:10;9.47;;;5.80;;
21591;SDS011;10958;50.892;3.992;2023-04-03T04:41:36;12.55;;;8.60;;
21591;SDS011;10958;50.892;3.992;2023-04-03T04:44:02;11.75;;;7.68;;
21591;SDS011;10958;50.892;3.992;2023-04-03T04:46:28;12.43;;;7.68;;
21591;SDS011;10958;50.892;3.992;2023-04-03T04:48:54;10.30;;;7.47;;
21591;SDS011;10958;50.892;3.992;2023-04-03T04:51:20;13.15;;;7.30;;
21591;SDS011;10958;50.892;3.992;2023-04-03T04:53:46;10.20;;;7.03;;
21591;SDS011;10958;50.892;3.992;2023-04-03T04:56:14;10.93;;;6.72;;
21591;SDS011;10958;50.892;3.992;2023-04-03T04:58:40;9.80;;;6.95;;
21591;SDS011;10958;50.892;3.992;2023-04-03T05:01:07;12.38;;;6.53;;
21591;SDS011;10958;50.892;3.992;2023-04-03T05:03:36;8.45;;;4.88;;
21591;SDS011;10958;50.892;3.992;2023-04-03T05:06:02;9.60;;;7.32;;
21591;SDS011;10958;50.892;3.992;2023-04-03T05:08:28;11.02;;;8.43;;
21591;SDS011;10958;50.892;3.992;2023-04-03T05:10:56;11.27;;;7.15;;
21591;SDS011;10958;50.892;3.992;2023-04-03T05:13:23;11.13;;;7.57;;
21591;SDS011;10958;50.892;3.992;2023-04-03T05:15:49;10.00;;;7.30;;
21591;SDS011;10958;50.892;3.992;2023-04-03T05:18:15;9.95;;;8.00;;
21591;SDS011;10958;50.892;3.992;2023-04-03T05:20:41;11.90;;;7.75;;
21591;SDS011;10958;50.892;3.992;2023-04-03T05:23:08;10.00;;;7.70;;
21591;SDS011;10958;50.892;3.992;2023-04-03T05:25:37;11.15;;;7.80;;
21591;SDS011;10958;50.892;3.992;2023-04-03T05:28:03;10.95;;;8.15;;
21591;SDS011;10958;50.892;3.992;2023-04-03T05:30:30;14.82;;;8.23;;
21591;SDS011;10958;50.892;3.992;2023-04-03T05:32:55;15.18;;;8.82;;
21591;SDS011;10958;50.892;3.992;2023-04-03T05:35:21;13.70;;;8.43;;
21591;SDS011;10958;50.892;3.992;2023-04-03T05:37:48;11.48;;;7.82;;
21591;SDS011;10958;50.892;3.992;2023-04-03T05:40:13;14.38;;;8.32;;
21591;SDS011;10958;50.892;3.992;2023-04-03T05:42:39;12.75;;;8.60;;
21591;SDS011;10958;50.892;3.992;2023-04-03T05:45:06;12.77;;;8.63;;
21591;SDS011;10958;50.892;3.992;2023-04-03T05:47:32;14.02;;;8.05;;
21591;SDS011;10958;50.892;3.992;2023-04-03T05:49:58;12.43;;;8.20;;
21591;SDS011;10958;50.892;3.992;2023-04-03T05:52:28;12.45;;;8.57;;
21591;SDS011;10958;50.892;3.992;2023-04-03T05:54:55;14.50;;;8.18;;
21591;SDS011;10958;50.892;3.992;2023-04-03T05:57:22;13.50;;;8.05;;
21591;SDS011;10958;50.892;3.992;2023-04-03T05:59:48;12.80;;;8.05;;
21591;SDS011;10958;50.892;3.992;2023-04-03T06:02:15;13.02;;;8.55;;
21591;SDS011;10958;50.892;3.992;2023-04-03T06:04:43;13.80;;;8.57;;
21591;SDS011;10958;50.892;3.992;2023-04-03T06:07:13;13.88;;;9.30;;
21591;SDS011;10958;50.892;3.992;2023-04-03T06:09:40;14.55;;;8.80;;
21591;SDS011;10958;50.892;3.992;2023-04-03T06:12:07;13.07;;;8.70;;
21591;SDS011;10958;50.892;3.992;2023-04-03T06:14:33;12.77;;;7.95;;
21591;SDS011;10958;50.892;3.992;2023-04-03T06:16:59;12.75;;;8.45;;
21591;SDS011;10958;50.892;3.992;2023-04-03T06:19:25;11.10;;;7.60;;
21591;SDS011;10958;50.892;3.992;2023-04-03T06:21:52;12.80;;;7.38;;
21591;SDS011;10958;50.892;3.992;2023-04-03T06:24:18;14.48;;;8.38;;
21591;SDS011;10958;50.892;3.992;2023-04-03T06:26:46;11.87;;;7.97;;
21591;SDS011;10958;50.892;3.992;2023-04-03T06:29:13;13.45;;;9.30;;
21591;SDS011;10958;50.892;3.992;2023-04-03T06:31:38;13.10;;;8.65;;
21591;SDS011;10958;50.892;3.992;2023-04-03T06:34:04;13.20;;;8.95;;
21591;SDS011;10958;50.892;3.992;2023-04-03T06:36:32;12.00;;;8.60;;
21591;SDS011;10958;50.892;3.992;2023-04-03T06:38:58;13.82;;;8.38;;
21591;SDS011;10958;50.892;3.992;2023-04-03T06:41:24;9.73;;;7.13;;
21591;SDS011;10958;50.892;3.992;2023-04-03T06:43:51;11.02;;;6.20;;
21591;SDS011;10958;50.892;3.992;2023-04-03T06:46:18;7.93;;;5.70;;
21591;SDS011;10958;50.892;3.992;2023-04-03T06:48:46;9.73;;;6.30;;
21591;SDS011;10958;50.892;3.992;2023-04-03T06:51:15;8.73;;;5.72;;
21591;SDS011;10958;50.892;3.992;2023-04-03T06:53:47;7.97;;;5.00;;
21591;SDS011;10958;50.892;3.992;2023-04-03T06:56:15;6.07;;;3.72;;
21591;SDS011;10958;50.892;3.992;2023-04-03T06:58:42;9.73;;;6.50;;
21591;SDS011;10958;50.892;3.992;2023-04-03T07:01:09;12.18;;;5.85;;
21591;SDS011;10958;50.892;3.992;2023-04-03T07:03:37;9.63;;;6.43;;
21591;SDS011;10958;50.892;3.992;2023-04-03T07:06:04;14.82;;;6.68;;
21591;SDS011;10958;50.892;3.992;2023-04-03T07:08:31;10.45;;;6.22;;
21591;SDS011;10958;50.892;3.992;2023-04-03T07:11:00;7.15;;;5.20;;
21591;SDS011;10958;50.892;3.992;2023-04-03T07:13:26;8.07;;;5.25;;
21591;SDS011;10958;50.892;3.992;2023-04-03T07:15:52;8.50;;;5.18;;
21591;SDS011;10958;50.892;3.992;2023-04-03T07:18:18;8.20;;;5.47;;
21591;SDS011;10958;50.892;3.992;2023-04-03T07:20:51;5.78;;;4.50;;
21591;SDS011;10958;50.892;3.992;2023-04-03T07:23:18;7.95;;;5.20;;
21591;SDS011;10958;50.892;3.992;2023-04-03T07:25:47;6.85;;;4.60;;
21591;SDS011;10958;50.892;3.992;2023-04-03T07:28:15;6.68;;;4.65;;
21591;SDS011;10958;50.892;3.992;2023-04-03T07:30:43;6.50;;;4.60;;
21591;SDS011;10958;50.892;3.992;2023-04-03T07:33:16;10.07;;;4.88;;
21591;SDS011;10958;50.892;3.992;2023-04-03T07:35:45;10.30;;;6.93;;
21591;SDS011;10958;50.892;3.992;2023-04-03T07:38:21;9.23;;;5.50;;
21591;SDS011;10958;50.892;3.992;2023-04-03T07:41:05;7.35;;;5.25;;
21591;SDS011;10958;50.892;3.992;2023-04-03T07:43:32;7.88;;;5.10;;
21591;SDS011;10958;50.892;3.992;2023-04-03T07:45:59;8.02;;;5.20;;
21591;SDS011;10958;50.892;3.992;2023-04-03T07:48:26;9.05;;;5.03;;
21591;SDS011;10958;50.892;3.992;2023-04-03T07:50:52;6.55;;;4.85;;
21591;SDS011;10958;50.892;3.992;2023-04-03T07:53:21;8.38;;;4.90;;
21591;SDS011;10958;50.892;3.992;2023-04-03T07:55:47;8.90;;;5.22;;
21591;SDS011;10958;50.892;3.992;2023-04-03T07:58:20;6.60;;;4.40;;
21591;SDS011;10958;50.892;3.992;2023-04-03T08:00:48;8.48;;;4.70;;
21591;SDS011;10958;50.892;3.992;2023-04-03T08:03:15;7.30;;;4.07;;
21591;SDS011;10958;50.892;3.992;2023-04-03T08:05:45;7.93;;;4.50;;
21591;SDS011;10958;50.892;3.992;2023-04-03T08:08:13;8.45;;;4.55;;
21591;SDS011;10958;50.892;3.992;2023-04-03T08:10:42;7.82;;;4.75;;
21591;SDS011;10958;50.892;3.992;2023-04-03T08:13:09;8.02;;;4.53;;
21591;SDS011;10958;50.892;3.992;2023-04-03T08:15:35;6.43;;;4.07;;
21591;SDS011;10958;50.892;3.992;2023-04-03T08:18:02;4.88;;;4.00;;
21591;SDS011;10958;50.892;3.992;2023-04-03T08:20:30;7.35;;;3.83;;
21591;SDS011;10958;50.892;3.992;2023-04-03T08:22:56;7.60;;;4.10;;
21591;SDS011;10958;50.892;3.992;2023-04-03T08:25:23;7.53;;;4.32;;
21591;SDS011;10958;50.892;3.992;2023-04-03T08:27:49;8.15;;;4.57;;
21591;SDS011;10958;50.892;3.992;2023-04-03T08:30:18;8.05;;;4.03;;
21591;SDS011;10958;50.892;3.992;2023-04-03T08:32:46;6.50;;;3.80;;
21591;SDS011;10958;50.892;3.992;2023-04-03T08:35:12;6.13;;;3.80;;
21591;SDS011;10958;50.892;3.992;2023-04-03T08:37:39;8.40;;;4.20;;
21591;SDS011;10958;50.892;3.992;2023-04-03T08:40:06;5.15;;;4.00;;
21591;SDS011;10958;50.892;3.992;2023-04-03T08:50:43;5.72;;;3.30;;
21591;SDS011;10958;50.892;3.992;2023-04-03T08:53:14;6.38;;;3.50;;
21591;SDS011;10958;50.892;3.992;2023-04-03T08:55:45;5.75;;;3.20;;
21591;SDS011;10958;50.892;3.992;2023-04-03T08:58:15;5.85;;;3.70;;
21591;SDS011;10958;50.892;3.992;2023-04-03T09:03:18;7.55;;;4.20;;
21591;SDS011;10958;50.892;3.992;2023-04-03T09:08:21;7.70;;;3.97;;
21591;SDS011;10958;50.892;3.992;2023-04-03T09:16:56;7.00;;;3.40;;
21591;SDS011;10958;50.892;3.992;2023-04-03T09:19:38;5.70;;;3.00;;
21591;SDS011;10958;50.892;3.992;2023-04-03T09:22:17;3.72;;;2.83;;
21591;SDS011;10958;50.892;3.992;2023-04-03T09:24:52;4.22;;;2.70;;
21591;SDS011;10958;50.892;3.992;2023-04-03T09:27:23;5.40;;;3.10;;
21591;SDS011;10958;50.892;3.992;2023-04-03T09:29:49;6.18;;;3.30;;
21591;SDS011;10958;50.892;3.992;2023-04-03T09:32:25;4.78;;;2.97;;
21591;SDS011;10958;50.892;3.992;2023-04-03T09:35:00;3.88;;;2.60;;
21591;SDS011;10958;50.892;3.992;2023-04-03T09:37:44;6.07;;;3.05;;
21591;SDS011;10958;50.892;3.992;2023-04-03T09:40:37;5.80;;;3.00;;
21591;SDS011;10958;50.892;3.992;2023-04-03T09:45:45;7.20;;;3.22;;
21591;SDS011;10958;50.892;3.992;2023-04-03T09:58:47;5.15;;;2.25;;
21591;SDS011;10958;50.892;3.992;2023-04-03T10:14:16;5.57;;;2.42;;
21591;SDS011;10958;50.892;3.992;2023-04-03T10:16:43;3.08;;;2.13;;
21591;SDS011;10958;50.892;3.992;2023-04-03T10:21:55;7.15;;;2.53;;
21591;SDS011;10958;50.892;3.992;2023-04-03T10:27:35;6.57;;;2.22;;
21591;SDS011;10958;50.892;3.992;2023-04-03T10:36:02;5.85;;;2.28;;
21591;SDS011;10958;50.892;3.992;2023-04-03T10:52:48;4.88;;;1.70;;
21591;SDS011;10958;50.892;3.992;2023-04-03T11:00:31;4.45;;;1.85;;
21591;SDS011;10958;50.892;3.992;2023-04-03T11:03:14;4.15;;;1.70;;
21591;SDS011;10958;50.892;3.992;2023-04-03T11:05:50;3.50;;;1.60;;
21591;SDS011;10958;50.892;3.992;2023-04-03T11:11:00;3.67;;;1.40;;
21591;SDS011;10958;50.892;3.992;2023-04-03T11:16:27;5.07;;;1.80;;
21591;SDS011;10958;50.892;3.992;2023-04-03T11:21:34;3.13;;;1.50;;
21591;SDS011;10958;50.892;3.992;2023-04-03T11:24:17;2.85;;;1.70;;
21591;SDS011;10958;50.892;3.992;2023-04-03T11:26:49;4.72;;;1.45;;
21591;SDS011;10958;50.892;3.992;2023-04-03T11:29:18;4.32;;;1.60;;
21591;SDS011;10958;50.892;3.992;2023-04-03T11:34:34;6.18;;;1.60;;
21591;SDS011;10958;50.892;3.992;2023-04-03T11:40:52;3.63;;;1.27;;
21591;SDS011;10958;50.892;3.992;2023-04-03T11:45:55;3.30;;;1.30;;
21591;SDS011;10958;50.892;3.992;2023-04-03T11:50:54;2.10;;;1.27;;
21591;SDS011;10958;50.892;3.992;2023-04-03T11:53:25;2.55;;;1.17;;
21591;SDS011;10958;50.892;3.992;2023-04-03T12:04:11;3.15;;;1.20;;
21591;SDS011;10958;50.892;3.992;2023-04-03T12:11:53;4.65;;;1.58;;
21591;SDS011;10958;50.892;3.992;2023-04-03T12:14:24;5.53;;;1.80;;
21591;SDS011;10958;50.892;3.992;2023-04-03T12:16:51;4.85;;;2.00;;
21591;SDS011;10958;50.892;3.992;2023-04-03T12:29:54;3.25;;;1.30;;
21591;SDS011;10958;50.892;3.992;2023-04-03T12:35:21;7.10;;;2.03;;
21591;SDS011;10958;50.892;3.992;2023-04-03T12:43:28;4.50;;;1.30;;
21591;SDS011;10958;50.892;3.992;2023-04-03T12:51:20;5.03;;;1.92;;
21591;SDS011;10958;50.892;3.992;2023-04-03T12:53:55;3.45;;;1.52;;
21591;SDS011;10958;50.892;3.992;2023-04-03T12:56:27;3.83;;;1.42;;
21591;SDS011;10958;50.892;3.992;2023-04-03T12:58:55;4.65;;;1.73;;
21591;SDS011;10958;50.892;3.992;2023-04-03T13:01:38;4.90;;;1.52;;
21591;SDS011;10958;50.892;3.992;2023-04-03T13:04:07;2.80;;;1.13;;
21591;SDS011;10958;50.892;3.992;2023-04-03T13:06:41;3.08;;;1.48;;
21591;SDS011;10958;50.892;3.992;2023-04-03T13:09:24;3.92;;;1.23;;
21591;SDS011;10958;50.892;3.992;2023-04-03T13:12:14;3.65;;;1.40;;
21591;SDS011;10958;50.892;3.992;2023-04-03T13:14:51;2.17;;;1.48;;
21591;SDS011;10958;50.892;3.992;2023-04-03T13:17:18;2.30;;;1.02;;
21591;SDS011;10958;50.892;3.992;2023-04-03T13:19:46;5.78;;;1.60;;
21591;SDS011;10958;50.892;3.992;2023-04-03T13:22:55;4.65;;;1.50;;
21591;SDS011;10958;50.892;3.992;2023-04-03T13:25:08;4.40;;;1.30;;
21591;SDS011;10958;50.892;3.992;2023-04-03T13:27:38;3.47;;;1.27;;
21591;SDS011;10958;50.892;3.992;2023-04-03T13:30:17;2.97;;;1.10;;
21591;SDS011;10958;50.892;3.992;2023-04-03T13:33:00;3.30;;;1.42;;
21591;SDS011;10958;50.892;3.992;2023-04-03T13:35:38;3.97;;;1.90;;
21591;SDS011;10958;50.892;3.992;2023-04-03T13:38:22;2.35;;;1.20;;
21591;SDS011;10958;50.892;3.992;2023-04-03T13:40:57;2.47;;;1.33;;
21591;SDS011;10958;50.892;3.992;2023-04-03T13:43:35;2.92;;;2.40;;
21591;SDS011;10958;50.892;3.992;2023-04-03T13:48:44;5.03;;;1.20;;
21591;SDS011;10958;50.892;3.992;2023-04-03T13:51:22;2.63;;;1.00;;
21591;SDS011;10958;50.892;3.992;2023-04-03T13:56:33;1.80;;;0.98;;
21591;SDS011;10958;50.892;3.992;2023-04-03T14:01:46;2.25;;;0.82;;
21591;SDS011;10958;50.892;3.992;2023-04-03T14:04:44;2.88;;;0.70;;
21591;SDS011;10958;50.892;3.992;2023-04-03T14:07:11;2.47;;;1.20;;
21591;SDS011;10958;50.892;3.992;2023-04-03T14:09:37;2.20;;;1.10;;
21591;SDS011;10958;50.892;3.992;2023-04-03T14:12:15;1.52;;;0.80;;
21591;SDS011;10958;50.892;3.992;2023-04-03T14:14:49;3.03;;;1.00;;
21591;SDS011;10958;50.892;3.992;2023-04-03T14:17:18;3.45;;;1.05;;
21591;SDS011;10958;50.892;3.992;2023-04-03T14:19:47;1.80;;;1.00;;
21591;SDS011;10958;50.892;3.992;2023-04-03T14:22:22;3.55;;;1.65;;
21591;SDS011;10958;50.892;3.992;2023-04-03T14:24:53;1.48;;;0.75;;
21591;SDS011;10958;50.892;3.992;2023-04-03T14:27:27;2.30;;;1.00;;
21591;SDS011;10958;50.892;3.992;2023-04-03T14:29:55;5.60;;;1.50;;
21591;SDS011;10958;50.892;3.992;2023-04-03T14:32:24;5.78;;;1.20;;
21591;SDS011;10958;50.892;3.992;2023-04-03T14:34:51;2.42;;;1.02;;
21591;SDS011;10958;50.892;3.992;2023-04-03T14:37:19;2.95;;;1.20;;
21591;SDS011;10958;50.892;3.992;2023-04-03T14:39:50;3.17;;;1.13;;
21591;SDS011;10958;50.892;3.992;2023-04-03T14:42:23;4.22;;;1.23;;
21591;SDS011;10958;50.892;3.992;2023-04-03T14:44:54;4.97;;;1.30;;
21591;SDS011;10958;50.892;3.992;2023-04-03T14:47:21;3.13;;;1.10;;
21591;SDS011;10958;50.892;3.992;2023-04-03T14:49:52;3.03;;;1.50;;
21591;SDS011;10958;50.892;3.992;2023-04-03T14:52:26;6.80;;;1.38;;
21591;SDS011;10958;50.892;3.992;2023-04-03T14:54:58;2.63;;;1.20;;
21591;SDS011;10958;50.892;3.992;2023-04-03T14:57:26;2.80;;;1.10;;
21591;SDS011;10958;50.892;3.992;2023-04-03T14:59:53;3.55;;;1.45;;
21591;SDS011;10958;50.892;3.992;2023-04-03T15:02:26;3.00;;;1.23;;
21591;SDS011;10958;50.892;3.992;2023-04-03T15:07:25;2.97;;;1.15;;
21591;SDS011;10958;50.892;3.992;2023-04-03T15:09:53;4.72;;;1.10;;
21591;SDS011;10958;50.892;3.992;2023-04-03T15:12:24;2.42;;;1.23;;
21591;SDS011;10958;50.892;3.992;2023-04-03T15:14:50;2.85;;;1.60;;
21591;SDS011;10958;50.892;3.992;2023-04-03T15:17:17;3.72;;;1.27;;
21591;SDS011;10958;50.892;3.992;2023-04-03T15:19:46;3.72;;;1.38;;
21591;SDS011;10958;50.892;3.992;2023-04-03T15:22:16;2.60;;;1.17;;
21591;SDS011;10958;50.892;3.992;2023-04-03T15:24:43;5.25;;;2.53;;
21591;SDS011;10958;50.892;3.992;2023-04-03T15:27:12;1.43;;;0.83;;
21591;SDS011;10958;50.892;3.992;2023-04-03T15:29:41;2.85;;;1.05;;
21591;SDS011;10958;50.892;3.992;2023-04-03T15:32:08;3.95;;;1.13;;
21591;SDS011;10958;50.892;3.992;2023-04-03T15:34:35;3.17;;;1.40;;
21591;SDS011;10958;50.892;3.992;2023-04-03T15:37:01;5.00;;;1.35;;
21591;SDS011;10958;50.892;3.992;2023-04-03T15:39:28;3.20;;;1.48;;
21591;SDS011;10958;50.892;3.992;2023-04-03T15:41:53;3.35;;;1.23;;
21591;SDS011;10958;50.892;3.992;2023-04-03T15:44:24;3.83;;;1.33;;
21591;SDS011;10958;50.892;3.992;2023-04-03T15:46:50;1.83;;;1.20;;
21591;SDS011;10958;50.892;3.992;2023-04-03T15:49:17;3.78;;;1.48;;
21591;SDS011;10958;50.892;3.992;2023-04-03T15:51:44;4.55;;;1.15;;
21591;SDS011;10958;50.892;3.992;2023-04-03T15:54:10;1.88;;;1.10;;
21591;SDS011;10958;50.892;3.992;2023-04-03T15:56:36;1.50;;;0.95;;
21591;SDS011;10958;50.892;3.992;2023-04-03T15:59:02;4.03;;;1.15;;
21591;SDS011;10958;50.892;3.992;2023-04-03T16:01:28;3.20;;;1.33;;
21591;SDS011;10958;50.892;3.992;2023-04-03T16:03:55;7.18;;;1.15;;
21591;SDS011;10958;50.892;3.992;2023-04-03T16:06:20;2.38;;;1.00;;
21591;SDS011;10958;50.892;3.992;2023-04-03T16:08:46;1.80;;;0.77;;
21591;SDS011;10958;50.892;3.992;2023-04-03T16:11:17;1.88;;;1.30;;
21591;SDS011;10958;50.892;3.992;2023-04-03T16:13:45;4.25;;;1.20;;
21591;SDS011;10958;50.892;3.992;2023-04-03T16:16:11;1.87;;;0.93;;
21591;SDS011;10958;50.892;3.992;2023-04-03T16:18:37;2.60;;;1.20;;
21591;SDS011;10958;50.892;3.992;2023-04-03T16:21:03;4.45;;;1.50;;
21591;SDS011;10958;50.892;3.992;2023-04-03T16:23:30;3.40;;;1.20;;
21591;SDS011;10958;50.892;3.992;2023-04-03T16:25:56;2.28;;;1.25;;
21591;SDS011;10958;50.892;3.992;2023-04-03T16:28:24;2.80;;;1.20;;
21591;SDS011;10958;50.892;3.992;2023-04-03T16:30:50;1.33;;;0.80;;
21591;SDS011;10958;50.892;3.992;2023-04-03T16:33:16;3.33;;;1.00;;
21591;SDS011;10958;50.892;3.992;2023-04-03T16:35:42;6.93;;;1.30;;
21591;SDS011;10958;50.892;3.992;2023-04-03T16:38:09;1.83;;;1.00;;
21591;SDS011;10958;50.892;3.992;2023-04-03T16:40:35;2.17;;;1.00;;
21591;SDS011;10958;50.892;3.992;2023-04-03T16:43:01;2.38;;;1.00;;
21591;SDS011;10958;50.892;3.992;2023-04-03T16:45:27;4.00;;;1.20;;
21591;SDS011;10958;50.892;3.992;2023-04-03T16:47:53;2.95;;;1.00;;
21591;SDS011;10958;50.892;3.992;2023-04-03T16:50:21;2.35;;;1.17;;
21591;SDS011;10958;50.892;3.992;2023-04-03T16:52:47;2.08;;;0.93;;
21591;SDS011;10958;50.892;3.992;2023-04-03T16:55:13;2.75;;;0.98;;
21591;SDS011;10958;50.892;3.992;2023-04-03T16:57:39;2.05;;;1.00;;
21591;SDS011;10958;50.892;3.992;2023-04-03T17:00:06;3.50;;;1.38;;
21591;SDS011;10958;50.892;3.992;2023-04-03T17:02:32;3.75;;;1.30;;
21591;SDS011;10958;50.892;3.992;2023-04-03T17:05:01;4.75;;;1.23;;
21591;SDS011;10958;50.892;3.992;2023-04-03T17:07:28;3.53;;;1.40;;
21591;SDS011;10958;50.892;3.992;2023-04-03T17:09:54;3.42;;;1.20;;
21591;SDS011;10958;50.892;3.992;2023-04-03T17:12:20;3.63;;;1.10;;
21591;SDS011;10958;50.892;3.992;2023-04-03T17:14:49;4.85;;;1.30;;
21591;SDS011;10958;50.892;3.992;2023-04-03T17:17:17;2.80;;;1.20;;
21591;SDS011;10958;50.892;3.992;2023-04-03T17:19:46;3.10;;;1.27;;
21591;SDS011;10958;50.892;3.992;2023-04-03T17:22:12;2.13;;;0.98;;
21591;SDS011;10958;50.892;3.992;2023-04-03T17:24:39;4.82;;;1.25;;
21591;SDS011;10958;50.892;3.992;2023-04-03T17:27:06;2.85;;;1.10;;
21591;SDS011;10958;50.892;3.992;2023-04-03T17:29:33;4.20;;;1.30;;